Time;durP1;ratioP1;P1;durP2;ratioP2;P2;SDS_P1;SDS_P2;PMS_P1;PMS_P2;Temp;Humidity;BMP_temperature;BMP_pressure;BME280_temperature;BME280_humidity;BME280_pressure;Samples;Min_cycle;Max_cycle;Signal;HPM_P1;HPM_P2
2023/05/08 00:01:40;;;;;;;52.25;32.92;;;;;;;;;;4958938;28;25097;-75
2023/05/08 00:04:06;;;;;;;54.45;32.08;;;;;;;;;;4948501;28;25095;-76
2023/05/08 00:06:32;;;;;;;49.70;32.08;;;;;;;;;;4946818;28;25056;-75
2023/05/08 00:08:58;;;;;;;52.38;33.15;;;;;;;;;;4948812;28;25104;-75
2023/05/08 00:11:24;;;;;;;47.72;32.42;;;;;;;;;;4946660;28;25143;-76
2023/05/08 00:13:50;;;;;;;50.33;33.20;;;;;;;;;;4948376;28;25146;-76
2023/05/08 00:16:16;;;;;;;48.13;32.13;;;;;;;;;;4948311;28;25084;-75
2023/05/08 00:18:42;;;;;;;55.72;34.60;;;;;;;;;;4952433;28;25077;-76
2023/05/08 00:21:08;;;;;;;50.92;33.60;;;;;;;;;;4951913;28;25138;-76
2023/05/08 00:23:34;;;;;;;52.92;33.58;;;;;;;;;;4948838;28;25067;-74
2023/05/08 00:26:00;;;;;;;52.83;33.78;;;;;;;;;;4946397;28;25094;-74
2023/05/08 00:28:26;;;;;;;64.10;36.58;;;;;;;;;;4946323;28;25144;-76
2023/05/08 00:30:52;;;;;;;62.92;36.33;;;;;;;;;;4946651;28;25081;-75
2023/05/08 00:33:18;;;;;;;50.42;33.35;;;;;;;;;;4945591;28;25109;-75
2023/05/08 00:35:44;;;;;;;68.20;39.35;;;;;;;;;;4943495;28;25105;-75
2023/05/08 00:38:10;;;;;;;64.60;36.67;;;;;;;;;;4951952;28;25096;-75
2023/05/08 00:40:36;;;;;;;85.03;42.80;;;;;;;;;;4949544;28;25159;-74
2023/05/08 00:43:02;;;;;;;73.00;41.50;;;;;;;;;;4953051;28;25079;-74
2023/05/08 00:45:36;;;;;;;61.40;37.33;;;;;;;;;;4952805;28;25052;-74
2023/05/08 00:48:03;;;;;;;64.32;37.35;;;;;;;;;;4951861;28;25082;-75
2023/05/08 00:50:29;;;;;;;58.90;36.20;;;;;;;;;;4951143;28;25092;-75
2023/05/08 00:52:56;;;;;;;72.53;39.22;;;;;;;;;;4949620;28;25072;-74
2023/05/08 00:55:22;;;;;;;62.53;36.53;;;;;;;;;;4948422;28;25126;-75
2023/05/08 00:57:48;;;;;;;59.53;35.15;;;;;;;;;;4957498;28;25078;-75
2023/05/08 01:00:16;;;;;;;63.42;37.00;;;;;;;;;;4948857;28;25178;-75
2023/05/08 01:02:42;;;;;;;171.38;59.70;;;;;;;;;;4951775;28;25059;-75
2023/05/08 01:05:08;;;;;;;166.82;57.53;;;;;;;;;;4948743;28;25059;-74
2023/05/08 01:07:34;;;;;;;201.77;59.22;;;;;;;;;;4952090;28;25078;-73
2023/05/08 01:10:00;;;;;;;165.30;58.08;;;;;;;;;;4953453;28;25060;-75
2023/05/08 01:12:45;;;;;;;148.48;58.13;;;;;;;;;;4952345;28;25081;-73
2023/05/08 01:15:23;;;;;;;177.82;62.25;;;;;;;;;;4947474;28;25079;-75
2023/05/08 01:17:55;;;;;;;137.45;59.08;;;;;;;;;;4950796;28;25078;-74
2023/05/08 01:20:26;;;;;;;152.05;60.67;;;;;;;;;;4947476;28;25073;-78
2023/05/08 01:23:07;;;;;;;132.13;60.97;;;;;;;;;;4954481;28;25046;-74
2023/05/08 01:25:51;;;;;;;125.00;60.38;;;;;;;;;;4952336;28;25095;-74
2023/05/08 01:28:36;;;;;;;135.50;64.78;;;;;;;;;;4948427;28;25093;-75
2023/05/08 01:31:08;;;;;;;130.18;61.55;;;;;;;;;;4944844;28;25072;-76
2023/05/08 01:33:51;;;;;;;144.98;65.57;;;;;;;;;;4950000;28;25070;-75
2023/05/08 01:36:20;;;;;;;174.05;74.85;;;;;;;;;;4944630;28;25066;-74
2023/05/08 01:38:51;;;;;;;172.40;74.47;;;;;;;;;;4951233;28;25072;-74
2023/05/08 01:41:22;;;;;;;196.55;79.30;;;;;;;;;;4946827;28;25077;-75
2023/05/08 01:43:52;;;;;;;184.13;78.47;;;;;;;;;;4950383;28;25078;-73
2023/05/08 01:46:20;;;;;;;209.90;82.18;;;;;;;;;;4952664;28;25112;-74
2023/05/08 01:48:50;;;;;;;171.80;77.22;;;;;;;;;;4946917;28;25070;-75
2023/05/08 01:51:18;;;;;;;196.35;80.38;;;;;;;;;;4948370;28;25142;-75
2023/05/08 01:53:49;;;;;;;255.23;91.82;;;;;;;;;;4954770;28;25132;-75
2023/05/08 01:56:21;;;;;;;166.98;75.57;;;;;;;;;;4952928;28;25131;-74
2023/05/08 01:58:47;;;;;;;188.85;80.60;;;;;;;;;;4951604;28;25061;-74
2023/05/08 02:01:14;;;;;;;173.57;75.15;;;;;;;;;;4957548;28;25054;-75
2023/05/08 02:03:42;;;;;;;169.43;76.70;;;;;;;;;;4956392;28;25087;-76
2023/05/08 02:06:09;;;;;;;172.77;75.97;;;;;;;;;;4945016;28;25114;-76
2023/05/08 02:08:36;;;;;;;160.57;74.30;;;;;;;;;;4950513;28;25138;-74
2023/05/08 02:11:03;;;;;;;191.20;79.53;;;;;;;;;;4952756;28;25060;-76
2023/05/08 02:13:31;;;;;;;189.68;82.10;;;;;;;;;;4952362;28;25064;-75
2023/05/08 02:15:58;;;;;;;171.68;77.00;;;;;;;;;;4948783;28;25066;-75
2023/05/08 02:18:24;;;;;;;190.32;82.25;;;;;;;;;;4953745;28;25061;-75
2023/05/08 02:20:51;;;;;;;203.55;82.07;;;;;;;;;;4956596;28;25108;-75
2023/05/08 02:23:18;;;;;;;165.10;77.10;;;;;;;;;;4959350;28;25077;-76
2023/05/08 02:25:45;;;;;;;191.30;81.05;;;;;;;;;;4946971;28;25133;-77
2023/05/08 02:28:11;;;;;;;184.95;79.30;;;;;;;;;;4953894;28;25061;-75
2023/05/08 02:30:38;;;;;;;174.88;78.78;;;;;;;;;;4950474;28;25063;-76
2023/05/08 02:33:04;;;;;;;169.15;77.78;;;;;;;;;;4958231;28;25056;-76
2023/05/08 02:35:31;;;;;;;168.43;77.63;;;;;;;;;;4952313;28;25064;-75
2023/05/08 02:37:57;;;;;;;159.40;75.18;;;;;;;;;;4963060;28;25119;-77
2023/05/08 02:40:25;;;;;;;169.52;77.30;;;;;;;;;;4958383;28;25099;-76
2023/05/08 02:42:51;;;;;;;174.13;78.45;;;;;;;;;;4959124;28;25093;-77
2023/05/08 02:45:17;;;;;;;160.20;75.32;;;;;;;;;;4953758;28;25088;-75
2023/05/08 02:47:52;;;;;;;161.55;78.47;;;;;;;;;;4946916;28;25078;-77
2023/05/08 02:50:26;;;;;;;150.57;76.60;;;;;;;;;;4950027;28;25096;-76
2023/05/08 02:52:54;;;;;;;170.77;77.15;;;;;;;;;;4956154;28;25060;-75
2023/05/08 02:55:23;;;;;;;168.55;81.43;;;;;;;;;;4952523;28;25077;-76
2023/05/08 02:58:07;;;;;;;167.02;78.78;;;;;;;;;;4955536;28;25051;-76
2023/05/08 03:00:47;;;;;;;197.50;87.50;;;;;;;;;;4952112;28;25077;-76
2023/05/08 03:03:19;;;;;;;259.88;94.75;;;;;;;;;;4953675;28;25026;-75
2023/05/08 03:05:49;;;;;;;435.27;114.22;;;;;;;;;;4949227;28;25048;-74
2023/05/08 03:08:17;;;;;;;349.95;110.97;;;;;;;;;;4953154;28;25052;-75
2023/05/08 03:10:46;;;;;;;867.88;169.38;;;;;;;;;;4964088;28;25137;-75
2023/05/08 03:13:14;;;;;;;369.00;110.10;;;;;;;;;;4959888;28;25049;-75
2023/05/08 03:15:49;;;;;;;516.35;127.43;;;;;;;;;;4953382;28;25093;-77
2023/05/08 03:18:19;;;;;;;544.63;130.52;;;;;;;;;;4955463;28;25055;-75
2023/05/08 03:20:47;;;;;;;668.50;139.30;;;;;;;;;;4949767;28;25071;-75
2023/05/08 03:23:13;;;;;;;813.85;161.18;;;;;;;;;;4946813;28;25128;-75
2023/05/08 03:25:40;;;;;;;477.83;128.23;;;;;;;;;;4946171;28;25081;-73
2023/05/08 03:28:07;;;;;;;401.33;122.50;;;;;;;;;;4951088;28;25052;-73
2023/05/08 03:30:36;;;;;;;503.20;140.73;;;;;;;;;;4947295;28;25048;-75
2023/05/08 03:33:02;;;;;;;561.67;148.25;;;;;;;;;;4949349;28;25060;-75
2023/05/08 03:35:28;;;;;;;572.38;151.80;;;;;;;;;;4948380;28;25048;-73
2023/05/08 03:37:55;;;;;;;428.90;129.90;;;;;;;;;;4950901;28;25060;-77
2023/05/08 03:40:21;;;;;;;421.38;130.63;;;;;;;;;;4950768;28;25089;-75
2023/05/08 03:42:48;;;;;;;620.70;165.60;;;;;;;;;;4950396;28;25151;-75
2023/05/08 03:45:16;;;;;;;411.58;130.02;;;;;;;;;;4947431;28;25073;-75
2023/05/08 03:47:43;;;;;;;338.67;124.32;;;;;;;;;;4961121;28;25067;-76
2023/05/08 03:50:09;;;;;;;315.23;119.43;;;;;;;;;;4956280;28;25062;-75
2023/05/08 03:52:35;;;;;;;330.60;119.45;;;;;;;;;;4953556;28;25164;-75
2023/05/08 03:55:01;;;;;;;308.20;120.63;;;;;;;;;;4947595;28;25191;-76
2023/05/08 03:57:30;;;;;;;317.17;119.20;;;;;;;;;;4947936;28;25079;-76
2023/05/08 04:00:21;;;;;;;275.70;109.25;;;;;;;;;;4947345;28;25063;-75
2023/05/08 04:02:56;;;;;;;301.65;115.38;;;;;;;;;;4954167;28;25078;-76
2023/05/08 04:05:30;;;;;;;295.05;113.65;;;;;;;;;;4945784;28;25073;-78
2023/05/08 04:07:59;;;;;;;263.98;106.35;;;;;;;;;;4960969;28;25023;-76
2023/05/08 04:10:45;;;;;;;261.05;106.18;;;;;;;;;;4957625;28;25157;-76
2023/05/08 04:13:13;;;;;;;253.48;107.22;;;;;;;;;;4955537;28;25094;-78
2023/05/08 04:15:44;;;;;;;255.18;102.65;;;;;;;;;;4959026;28;25064;-78
2023/05/08 04:18:12;;;;;;;230.30;99.95;;;;;;;;;;4959938;28;25129;-78
2023/05/08 04:20:41;;;;;;;229.00;98.90;;;;;;;;;;4952489;28;25058;-77
2023/05/08 04:23:08;;;;;;;235.18;97.97;;;;;;;;;;4959964;28;25070;-77
2023/05/08 04:25:38;;;;;;;232.38;98.30;;;;;;;;;;4950025;28;25076;-77
2023/05/08 04:28:04;;;;;;;242.38;97.97;;;;;;;;;;4956059;28;25072;-76
2023/05/08 04:30:31;;;;;;;211.43;97.15;;;;;;;;;;4950974;28;25055;-78
2023/05/08 04:32:58;;;;;;;214.57;94.07;;;;;;;;;;4951394;28;25053;-76
2023/05/08 04:35:24;;;;;;;220.02;96.13;;;;;;;;;;4952417;28;25159;-76
2023/05/08 04:37:50;;;;;;;219.93;94.85;;;;;;;;;;4956723;28;25131;-77
2023/05/08 04:40:16;;;;;;;216.77;94.18;;;;;;;;;;4956283;28;25111;-77
2023/05/08 04:42:42;;;;;;;213.48;93.18;;;;;;;;;;4951992;28;25073;-77
2023/05/08 04:45:08;;;;;;;217.20;92.70;;;;;;;;;;4959645;28;25053;-77
2023/05/08 04:47:34;;;;;;;211.05;91.85;;;;;;;;;;4952126;28;25071;-76
2023/05/08 04:50:01;;;;;;;211.52;91.85;;;;;;;;;;4952468;28;25058;-76
2023/05/08 04:52:27;;;;;;;187.00;84.63;;;;;;;;;;4961176;28;25072;-77
2023/05/08 04:54:53;;;;;;;195.23;87.22;;;;;;;;;;4950795;28;25068;-78
2023/05/08 04:57:19;;;;;;;190.05;88.15;;;;;;;;;;4958352;28;25082;-77
2023/05/08 04:59:45;;;;;;;193.02;90.32;;;;;;;;;;4953182;28;25141;-77
2023/05/08 05:02:11;;;;;;;185.63;87.65;;;;;;;;;;4960702;28;25112;-78
2023/05/08 05:04:37;;;;;;;198.23;92.15;;;;;;;;;;4961740;28;25103;-77
2023/05/08 05:07:03;;;;;;;204.45;92.78;;;;;;;;;;4953978;28;25059;-76
2023/05/08 05:09:29;;;;;;;218.43;94.63;;;;;;;;;;4966127;28;25138;-78
2023/05/08 05:11:55;;;;;;;204.75;93.45;;;;;;;;;;4953115;28;25491;-79
2023/05/08 05:14:21;;;;;;;204.73;92.90;;;;;;;;;;4966533;28;25073;-77
2023/05/08 05:16:47;;;;;;;209.77;92.97;;;;;;;;;;4954753;28;25135;-78
2023/05/08 05:19:13;;;;;;;216.18;95.72;;;;;;;;;;4965288;28;25051;-79
2023/05/08 05:21:39;;;;;;;214.25;95.05;;;;;;;;;;4950691;28;25078;-79
2023/05/08 05:24:06;;;;;;;207.80;96.47;;;;;;;;;;4965537;28;25093;-81
2023/05/08 05:26:32;;;;;;;209.15;93.15;;;;;;;;;;4963405;28;25085;-76
2023/05/08 05:28:58;;;;;;;218.27;98.47;;;;;;;;;;4961780;28;25097;-79
2023/05/08 05:31:24;;;;;;;192.15;90.82;;;;;;;;;;4973003;28;25111;-81
2023/05/08 05:33:50;;;;;;;196.15;92.63;;;;;;;;;;4969610;28;25070;-78
2023/05/08 05:36:16;;;;;;;207.02;95.82;;;;;;;;;;4955804;28;25051;-79
2023/05/08 05:38:42;;;;;;;218.13;93.75;;;;;;;;;;4956727;28;25101;-78
2023/05/08 05:41:08;;;;;;;219.57;93.82;;;;;;;;;;4958188;28;25093;-78
2023/05/08 05:43:34;;;;;;;196.45;91.85;;;;;;;;;;4952648;28;25075;-76
2023/05/08 05:46:04;;;;;;;207.93;93.47;;;;;;;;;;4954515;28;25081;-78
2023/05/08 05:48:30;;;;;;;205.38;94.38;;;;;;;;;;4948962;28;25055;-77
2023/05/08 05:50:56;;;;;;;225.77;95.60;;;;;;;;;;4950578;28;25101;-82
2023/05/08 05:53:22;;;;;;;209.70;93.95;;;;;;;;;;4958636;28;25114;-77
2023/05/08 05:55:48;;;;;;;201.65;90.15;;;;;;;;;;4957596;28;25056;-80
2023/05/08 05:58:15;;;;;;;198.90;93.55;;;;;;;;;;4955566;28;25125;-77
2023/05/08 06:00:41;;;;;;;213.20;93.35;;;;;;;;;;4963640;28;25139;-78
2023/05/08 06:03:07;;;;;;;188.85;89.30;;;;;;;;;;4960262;28;25081;-78
2023/05/08 06:05:33;;;;;;;202.43;90.45;;;;;;;;;;4954801;28;25073;-79
2023/05/08 06:07:59;;;;;;;195.93;84.80;;;;;;;;;;4953782;28;25494;-78
2023/05/08 06:10:25;;;;;;;205.68;91.57;;;;;;;;;;4960919;28;25090;-75
2023/05/08 06:12:52;;;;;;;206.20;93.10;;;;;;;;;;4956842;28;25089;-78
2023/05/08 06:15:18;;;;;;;203.07;93.18;;;;;;;;;;4948758;28;25069;-78
2023/05/08 06:17:44;;;;;;;200.73;91.40;;;;;;;;;;4957299;28;25056;-79
2023/05/08 06:20:10;;;;;;;182.32;89.75;;;;;;;;;;4958235;28;25082;-77
2023/05/08 06:22:38;;;;;;;194.13;90.95;;;;;;;;;;4951838;28;25135;-77
2023/05/08 06:25:05;;;;;;;186.25;88.60;;;;;;;;;;4953803;28;25121;-77
2023/05/08 06:27:32;;;;;;;188.30;85.28;;;;;;;;;;4950690;28;25108;-77
2023/05/08 06:29:58;;;;;;;182.23;82.43;;;;;;;;;;4954248;28;25075;-76
2023/05/08 06:32:24;;;;;;;167.25;79.35;;;;;;;;;;4963320;28;25141;-78
2023/05/08 06:34:50;;;;;;;180.95;81.20;;;;;;;;;;4950283;28;25060;-78
2023/05/08 06:37:16;;;;;;;165.52;77.88;;;;;;;;;;4956662;28;25065;-77
2023/05/08 06:39:42;;;;;;;181.52;79.60;;;;;;;;;;4971503;28;25073;-77
2023/05/08 06:42:08;;;;;;;172.55;77.43;;;;;;;;;;4963340;28;25065;-78
2023/05/08 06:44:34;;;;;;;161.98;74.15;;;;;;;;;;4947737;28;25070;-78
2023/05/08 06:47:00;;;;;;;163.63;74.53;;;;;;;;;;4952363;28;25112;-78
2023/05/08 06:49:26;;;;;;;163.15;75.97;;;;;;;;;;4958287;28;25094;-78
2023/05/08 06:51:52;;;;;;;156.85;75.80;;;;;;;;;;4954952;28;25107;-77
2023/05/08 06:54:18;;;;;;;165.60;75.88;;;;;;;;;;4954456;28;25058;-76
2023/05/08 06:56:44;;;;;;;164.20;73.90;;;;;;;;;;4952442;28;25076;-77
2023/05/08 06:59:10;;;;;;;163.82;72.57;;;;;;;;;;4947871;28;25128;-77
2023/05/08 07:01:36;;;;;;;146.73;70.55;;;;;;;;;;4946960;28;25056;-78
2023/05/08 07:04:03;;;;;;;144.43;68.32;;;;;;;;;;4951873;28;25061;-79
2023/05/08 07:06:33;;;;;;;130.52;66.85;;;;;;;;;;4956676;28;25053;-76
2023/05/08 07:08:59;;;;;;;132.20;64.60;;;;;;;;;;4952598;28;25160;-78
2023/05/08 07:11:25;;;;;;;133.82;62.35;;;;;;;;;;4950509;28;25067;-77
2023/05/08 07:13:51;;;;;;;133.32;65.55;;;;;;;;;;4959198;28;25064;-77
2023/05/08 07:16:17;;;;;;;140.68;64.60;;;;;;;;;;4963015;28;25084;-76
2023/05/08 07:18:43;;;;;;;141.30;65.03;;;;;;;;;;4961471;28;25086;-77
2023/05/08 07:21:09;;;;;;;131.68;61.70;;;;;;;;;;4959743;28;25056;-78
2023/05/08 07:23:35;;;;;;;126.50;62.30;;;;;;;;;;4947184;28;25053;-77
2023/05/08 07:26:01;;;;;;;124.45;60.95;;;;;;;;;;4952283;28;25072;-78
2023/05/08 07:28:27;;;;;;;122.53;59.00;;;;;;;;;;4948443;28;25096;-77
2023/05/08 07:30:53;;;;;;;118.35;59.45;;;;;;;;;;4946896;28;25097;-77
2023/05/08 07:33:19;;;;;;;112.55;57.13;;;;;;;;;;4947317;28;25046;-78
2023/05/08 07:35:46;;;;;;;115.68;56.83;;;;;;;;;;4955363;28;25151;-77
2023/05/08 07:38:12;;;;;;;112.85;56.33;;;;;;;;;;4957906;28;25146;-77
2023/05/08 07:40:38;;;;;;;104.60;48.40;;;;;;;;;;4946681;28;25084;-77
2023/05/08 07:43:04;;;;;;;96.82;48.15;;;;;;;;;;4949813;28;25080;-77
2023/05/08 07:45:30;;;;;;;100.03;48.55;;;;;;;;;;4960572;28;25081;-78
2023/05/08 07:47:57;;;;;;;101.72;43.65;;;;;;;;;;4965923;28;25075;-77
2023/05/08 07:50:24;;;;;;;87.95;43.35;;;;;;;;;;4953016;28;25080;-77
2023/05/08 07:52:50;;;;;;;98.25;46.45;;;;;;;;;;4966075;28;25079;-78
2023/05/08 07:55:16;;;;;;;97.60;44.67;;;;;;;;;;4952168;28;25076;-77
2023/05/08 07:57:43;;;;;;;95.95;41.65;;;;;;;;;;4953888;28;25094;-76
2023/05/08 08:00:12;;;;;;;100.95;44.33;;;;;;;;;;4953600;28;25126;-78
2023/05/08 08:02:39;;;;;;;95.82;45.58;;;;;;;;;;4953270;28;25050;-76
2023/05/08 08:05:05;;;;;;;105.78;46.28;;;;;;;;;;4952688;28;25063;-76
2023/05/08 08:07:34;;;;;;;94.28;42.90;;;;;;;;;;4957926;28;25060;-77
2023/05/08 08:10:00;;;;;;;93.60;43.83;;;;;;;;;;4953609;28;25162;-77
2023/05/08 08:12:27;;;;;;;100.30;43.78;;;;;;;;;;4954074;28;25151;-79
2023/05/08 08:14:53;;;;;;;95.75;43.17;;;;;;;;;;4952162;28;25105;-78
2023/05/08 08:17:19;;;;;;;95.22;41.17;;;;;;;;;;4956820;28;25099;-77
2023/05/08 08:19:45;;;;;;;90.57;40.60;;;;;;;;;;4954719;28;25144;-78
2023/05/08 08:22:11;;;;;;;94.75;41.63;;;;;;;;;;4953865;28;25085;-78
2023/05/08 08:24:37;;;;;;;87.20;37.75;;;;;;;;;;4961156;28;25076;-78
2023/05/08 08:27:03;;;;;;;88.00;38.00;;;;;;;;;;4959250;28;25093;-78
2023/05/08 08:29:29;;;;;;;80.82;36.83;;;;;;;;;;4961135;28;25167;-77
2023/05/08 08:31:55;;;;;;;69.07;33.60;;;;;;;;;;4963951;28;25198;-79
2023/05/08 08:34:21;;;;;;;75.28;35.38;;;;;;;;;;4964547;28;25075;-79
2023/05/08 08:36:47;;;;;;;71.32;35.72;;;;;;;;;;4955399;28;25100;-79
2023/05/08 08:39:13;;;;;;;86.95;38.53;;;;;;;;;;4953482;28;25126;-77
2023/05/08 08:41:39;;;;;;;77.18;36.35;;;;;;;;;;4953711;28;25074;-78
2023/05/08 08:44:05;;;;;;;85.13;35.95;;;;;;;;;;4954430;28;25063;-77
2023/05/08 08:46:34;;;;;;;73.72;34.60;;;;;;;;;;4968406;28;25083;-79
2023/05/08 08:49:03;;;;;;;84.10;37.33;;;;;;;;;;4963643;28;25121;-81
2023/05/08 08:51:35;;;;;;;75.57;36.20;;;;;;;;;;4959673;28;25055;-78
2023/05/08 08:54:08;;;;;;;77.43;35.28;;;;;;;;;;4973603;28;25073;-79
2023/05/08 08:56:37;;;;;;;74.63;34.70;;;;;;;;;;4953652;28;25059;-79
2023/05/08 08:59:04;;;;;;;71.15;34.38;;;;;;;;;;4954113;28;25129;-79
2023/05/08 09:01:31;;;;;;;75.07;35.97;;;;;;;;;;4953419;28;25077;-77
2023/05/08 09:03:58;;;;;;;78.13;35.33;;;;;;;;;;4955186;28;25117;-78
2023/05/08 09:06:24;;;;;;;89.88;37.25;;;;;;;;;;4947630;28;25044;-78
2023/05/08 09:08:54;;;;;;;78.93;36.83;;;;;;;;;;4950557;28;25069;-78
2023/05/08 09:11:20;;;;;;;86.30;39.13;;;;;;;;;;4957601;28;25073;-78
2023/05/08 09:13:46;;;;;;;90.57;39.83;;;;;;;;;;4950658;28;25043;-77
2023/05/08 09:16:12;;;;;;;86.47;40.75;;;;;;;;;;4962344;28;25084;-78
2023/05/08 09:18:38;;;;;;;87.85;38.53;;;;;;;;;;4949758;28;25068;-78
2023/05/08 09:21:05;;;;;;;85.43;40.03;;;;;;;;;;4959896;28;25070;-79
2023/05/08 09:23:31;;;;;;;83.63;37.28;;;;;;;;;;4948995;28;25063;-77
2023/05/08 09:25:57;;;;;;;76.55;39.42;;;;;;;;;;4958811;28;25141;-78
2023/05/08 09:28:24;;;;;;;80.28;36.83;;;;;;;;;;4953341;28;25107;-77
2023/05/08 09:30:53;;;;;;;82.30;37.58;;;;;;;;;;4950222;28;25064;-78
2023/05/08 09:33:20;;;;;;;86.70;38.60;;;;;;;;;;4951317;28;25046;-76
2023/05/08 09:35:47;;;;;;;90.35;40.05;;;;;;;;;;4951131;28;25074;-79
2023/05/08 09:38:45;;;;;;;86.25;37.25;;;;;;;;;;4952961;28;25069;-78
2023/05/08 09:41:15;;;;;;;82.82;36.92;;;;;;;;;;4913567;28;25083;-76
2023/05/08 09:43:42;;;;;;;84.07;39.50;;;;;;;;;;4960728;28;25051;-76
2023/05/08 09:46:22;;;;;;;80.70;36.97;;;;;;;;;;4954364;28;25173;-76
2023/05/08 09:48:48;;;;;;;72.18;33.83;;;;;;;;;;4953394;28;25108;-76
2023/05/08 09:51:14;;;;;;;73.45;35.95;;;;;;;;;;4956627;28;25074;-77
2023/05/08 09:53:40;;;;;;;78.75;36.05;;;;;;;;;;4949865;28;25072;-76
2023/05/08 09:56:06;;;;;;;73.18;32.70;;;;;;;;;;4962598;28;25054;-75
2023/05/08 09:58:42;;;;;;;71.15;34.63;;;;;;;;;;4966861;28;25076;-75
2023/05/08 10:01:26;;;;;;;78.05;34.97;;;;;;;;;;4982373;28;25107;-77
2023/05/08 10:03:52;;;;;;;76.68;37.33;;;;;;;;;;4976038;28;25062;-76
2023/05/08 10:06:18;;;;;;;78.22;36.60;;;;;;;;;;4980164;28;25054;-77
2023/05/08 10:08:45;;;;;;;73.50;36.38;;;;;;;;;;4988627;28;25071;-76
2023/05/08 10:11:15;;;;;;;79.85;37.00;;;;;;;;;;4989758;28;25078;-77
2023/05/08 10:13:42;;;;;;;80.95;38.00;;;;;;;;;;4978390;28;25063;-77
2023/05/08 10:16:11;;;;;;;78.20;36.72;;;;;;;;;;4985848;28;25080;-75
2023/05/08 10:18:39;;;;;;;75.20;36.10;;;;;;;;;;4984411;28;25056;-77
2023/05/08 10:21:07;;;;;;;86.95;39.20;;;;;;;;;;4971215;28;25115;-76
2023/05/08 10:23:34;;;;;;;78.55;38.85;;;;;;;;;;4962775;28;25097;-75
2023/05/08 10:26:04;;;;;;;73.22;35.17;;;;;;;;;;4965155;28;25050;-75
2023/05/08 10:28:50;;;;;;;74.60;34.10;;;;;;;;;;4971601;28;25066;-76
2023/05/08 10:31:17;;;;;;;68.60;33.25;;;;;;;;;;4964883;28;25070;-78
2023/05/08 10:33:45;;;;;;;72.97;32.58;;;;;;;;;;4980663;28;25104;-75
2023/05/08 10:36:13;;;;;;;66.47;31.75;;;;;;;;;;4968239;28;25065;-76
2023/05/08 10:38:41;;;;;;;58.33;30.52;;;;;;;;;;4961280;28;25162;-76
2023/05/08 10:41:07;;;;;;;63.42;31.20;;;;;;;;;;4973799;28;25113;-77
2023/05/08 10:43:33;;;;;;;60.63;30.95;;;;;;;;;;4958251;28;25058;-79
2023/05/08 10:46:01;;;;;;;57.58;29.75;;;;;;;;;;4965479;28;25093;-76
2023/05/08 10:48:27;;;;;;;57.83;29.90;;;;;;;;;;4958530;28;25127;-78
2023/05/08 10:50:58;;;;;;;60.67;30.98;;;;;;;;;;4962160;28;25051;-76
2023/05/08 10:53:36;;;;;;;55.63;28.17;;;;;;;;;;4966186;28;25041;-76
2023/05/08 10:56:02;;;;;;;52.63;27.65;;;;;;;;;;4956758;28;25068;-78
2023/05/08 10:58:30;;;;;;;59.40;28.00;;;;;;;;;;4963873;28;25077;-77
2023/05/08 11:00:58;;;;;;;57.55;30.38;;;;;;;;;;4953274;28;25134;-78
2023/05/08 11:03:28;;;;;;;52.83;27.38;;;;;;;;;;4961535;28;25071;-75
2023/05/08 11:05:55;;;;;;;57.20;30.98;;;;;;;;;;4959404;28;25064;-78
2023/05/08 11:08:23;;;;;;;56.33;28.45;;;;;;;;;;4961341;28;25079;-76
2023/05/08 11:10:58;;;;;;;57.13;29.67;;;;;;;;;;4960446;28;25068;-76
2023/05/08 11:13:29;;;;;;;57.45;28.70;;;;;;;;;;4969425;28;25063;-76
2023/05/08 11:15:56;;;;;;;54.70;27.70;;;;;;;;;;4978873;28;25048;-75
2023/05/08 11:18:25;;;;;;;56.75;27.83;;;;;;;;;;4985439;28;25075;-74
2023/05/08 11:21:07;;;;;;;49.35;26.42;;;;;;;;;;4968804;28;25060;-77
2023/05/08 11:23:33;;;;;;;;;;;;;;;;;;4975793;28;25068;-76
2023/05/08 11:26:02;;;;;;;52.58;26.85;;;;;;;;;;4963028;28;25067;-76
2023/05/08 11:28:32;;;;;;;46.20;27.60;;;;;;;;;;4970991;28;25050;-77
2023/05/08 11:31:02;;;;;;;49.55;27.05;;;;;;;;;;4964448;28;25117;-75
2023/05/08 11:33:39;;;;;;;57.47;28.63;;;;;;;;;;4962967;28;25156;-74
2023/05/08 11:36:23;;;;;;;51.45;27.35;;;;;;;;;;4978098;28;25077;-75
2023/05/08 11:39:12;;;;;;;55.80;27.83;;;;;;;;;;4962497;28;25066;-76
2023/05/08 11:41:38;;;;;;;56.88;29.63;;;;;;;;;;4957380;28;25070;-75
2023/05/08 11:44:06;;;;;;;52.72;26.05;;;;;;;;;;4953754;28;25071;-76
2023/05/08 11:46:35;;;;;;;45.45;24.38;;;;;;;;;;4952895;28;25141;-77
2023/05/08 11:49:01;;;;;;;53.90;27.60;;;;;;;;;;4961179;28;25102;-75
2023/05/08 11:51:31;;;;;;;47.72;25.90;;;;;;;;;;4955510;28;25117;-76
2023/05/08 11:53:58;;;;;;;52.65;27.08;;;;;;;;;;4962146;28;25064;-75
2023/05/08 11:56:25;;;;;;;46.53;25.50;;;;;;;;;;4954759;28;25070;-75
2023/05/08 11:59:01;;;;;;;47.40;24.85;;;;;;;;;;4959220;28;25050;-80
2023/05/08 12:01:27;;;;;;;46.38;25.13;;;;;;;;;;4958936;28;25148;-76
2023/05/08 12:03:59;;;;;;;43.30;24.15;;;;;;;;;;4957061;28;25069;-76
2023/05/08 12:06:26;;;;;;;39.67;23.73;;;;;;;;;;4948187;28;25093;-76
2023/05/08 12:08:52;;;;;;;47.28;24.70;;;;;;;;;;4958056;28;25089;-76
2023/05/08 12:11:24;;;;;;;38.85;23.65;;;;;;;;;;4953131;28;25107;-76
2023/05/08 12:13:51;;;;;;;42.50;23.85;;;;;;;;;;4957407;28;25115;-75
2023/05/08 12:16:17;;;;;;;47.00;25.77;;;;;;;;;;4956253;28;25071;-78
2023/05/08 12:18:43;;;;;;;45.03;25.63;;;;;;;;;;4956528;28;25068;-76
2023/05/08 12:21:11;;;;;;;51.78;26.65;;;;;;;;;;4955257;28;25159;-76
2023/05/08 12:23:37;;;;;;;43.92;26.35;;;;;;;;;;4949337;28;25136;-76
2023/05/08 12:26:03;;;;;;;43.45;26.80;;;;;;;;;;4946625;28;25054;-75
2023/05/08 12:28:33;;;;;;;47.63;25.60;;;;;;;;;;4949150;28;25048;-76
2023/05/08 12:30:59;;;;;;;47.35;28.13;;;;;;;;;;4951083;28;25153;-76
2023/05/08 12:33:25;;;;;;;51.05;28.77;;;;;;;;;;4954902;28;25141;-77
2023/05/08 12:35:51;;;;;;;55.47;29.73;;;;;;;;;;4952393;28;25044;-76
2023/05/08 12:38:17;;;;;;;57.35;31.80;;;;;;;;;;4956886;28;25058;-76
2023/05/08 12:40:45;;;;;;;57.47;31.20;;;;;;;;;;4951777;28;25058;-75
2023/05/08 12:43:11;;;;;;;60.88;32.10;;;;;;;;;;4951592;28;25088;-77
2023/05/08 12:45:41;;;;;;;69.15;33.67;;;;;;;;;;4951497;28;25075;-76
2023/05/08 12:48:16;;;;;;;74.78;35.47;;;;;;;;;;4953178;28;25091;-77
2023/05/08 12:50:44;;;;;;;84.13;38.28;;;;;;;;;;4952002;28;25069;-76
2023/05/08 12:53:10;;;;;;;98.88;44.38;;;;;;;;;;4955365;28;25051;-78
2023/05/08 12:55:36;;;;;;;111.25;44.90;;;;;;;;;;4962084;28;25081;-74
2023/05/08 12:58:07;;;;;;;118.38;49.90;;;;;;;;;;4960252;28;25090;-76
2023/05/08 13:00:40;;;;;;;126.30;47.50;;;;;;;;;;4951587;28;25057;-78
2023/05/08 13:03:06;;;;;;;127.43;51.40;;;;;;;;;;4948774;28;25054;-77
2023/05/08 13:05:33;;;;;;;134.02;52.47;;;;;;;;;;4952653;28;25084;-76
2023/05/08 13:08:00;;;;;;;124.50;51.20;;;;;;;;;;4947212;28;25126;-76
2023/05/08 13:10:26;;;;;;;126.15;52.80;;;;;;;;;;4957948;28;25157;-77
2023/05/08 13:12:52;;;;;;;133.52;52.90;;;;;;;;;;4960032;28;25103;-76
2023/05/08 13:15:20;;;;;;;132.07;53.53;;;;;;;;;;4958987;28;25062;-76
2023/05/08 13:17:45;;;;;;;122.53;51.90;;;;;;;;;;4959885;28;25073;-76
2023/05/08 13:20:11;;;;;;;130.57;53.60;;;;;;;;;;4955702;28;25077;-76
2023/05/08 13:22:37;;;;;;;130.18;54.08;;;;;;;;;;4954837;28;25082;-77
2023/05/08 13:25:04;;;;;;;127.90;53.35;;;;;;;;;;4953435;28;25124;-75
2023/05/08 13:27:30;;;;;;;124.40;54.78;;;;;;;;;;4953782;28;25071;-79
2023/05/08 13:29:56;;;;;;;114.75;52.92;;;;;;;;;;4959396;28;25061;-78
2023/05/08 13:32:22;;;;;;;104.68;48.15;;;;;;;;;;4950094;28;25068;-77
2023/05/08 13:34:48;;;;;;;98.22;48.33;;;;;;;;;;4952231;28;25065;-77
2023/05/08 13:37:14;;;;;;;90.25;45.88;;;;;;;;;;4958752;28;25048;-76
2023/05/08 13:39:40;;;;;;;98.22;46.13;;;;;;;;;;4958839;28;25076;-75
2023/05/08 13:42:06;;;;;;;86.63;45.50;;;;;;;;;;4955464;28;25070;-76
2023/05/08 13:44:31;;;;;;;77.50;42.55;;;;;;;;;;4957264;28;25051;-75
2023/05/08 13:46:57;;;;;;;81.25;39.90;;;;;;;;;;4952596;28;25146;-75
2023/05/08 13:49:25;;;;;;;77.95;40.72;;;;;;;;;;4960343;28;25142;-75
2023/05/08 13:51:51;;;;;;;77.18;39.17;;;;;;;;;;4959940;28;25066;-80
2023/05/08 13:54:16;;;;;;;74.00;39.83;;;;;;;;;;4951386;28;25167;-78
2023/05/08 13:56:42;;;;;;;66.90;36.78;;;;;;;;;;4957821;28;25063;-76
2023/05/08 13:59:09;;;;;;;70.90;35.75;;;;;;;;;;4954985;28;25108;-76
2023/05/08 14:01:35;;;;;;;58.42;32.75;;;;;;;;;;4956610;28;25099;-75
2023/05/08 14:04:01;;;;;;;63.35;33.53;;;;;;;;;;4951609;28;25097;-76
2023/05/08 14:06:27;;;;;;;58.58;32.83;;;;;;;;;;4953279;28;25094;-76
2023/05/08 14:08:52;;;;;;;63.22;32.28;;;;;;;;;;4955123;28;25073;-76
2023/05/08 14:11:18;;;;;;;52.67;31.30;;;;;;;;;;4956878;28;25083;-77
2023/05/08 14:13:44;;;;;;;54.10;29.48;;;;;;;;;;4952593;28;25073;-75